sensor_id;sensor_type;location;lat;lon;timestamp;temperature;humidity
69770;SHT30;57282;52.514;13.458;2022-09-21T00:01:11;11.00;83.14
69770;SHT30;57282;52.514;13.458;2022-09-21T00:03:40;11.00;83.48
69770;SHT30;57282;52.514;13.458;2022-09-21T00:06:09;10.98;83.17
69770;SHT30;57282;52.514;13.458;2022-09-21T00:08:37;11.02;82.85
69770;SHT30;57282;52.514;13.458;2022-09-21T00:11:05;11.02;83.17
69770;SHT30;57282;52.514;13.458;2022-09-21T00:13:33;11.08;82.96
69770;SHT30;57282;52.514;13.458;2022-09-21T00:16:05;11.12;83.15
69770;SHT30;57282;52.514;13.458;2022-09-21T00:18:33;11.12;83.30
69770;SHT30;57282;52.514;13.458;2022-09-21T00:21:00;11.11;82.82
69770;SHT30;57282;52.514;13.458;2022-09-21T00:23:27;11.07;83.11
69770;SHT30;57282;52.514;13.458;2022-09-21T00:26:03;11.05;82.83
69770;SHT30;57282;52.514;13.458;2022-09-21T00:28:31;11.02;82.31
69770;SHT30;57282;52.514;13.458;2022-09-21T00:31:01;11.07;83.29
69770;SHT30;57282;52.514;13.458;2022-09-21T00:33:30;10.98;83.09
69770;SHT30;57282;52.514;13.458;2022-09-21T00:36:01;11.00;83.23
69770;SHT30;57282;52.514;13.458;2022-09-21T00:38:29;10.92;83.38
69770;SHT30;57282;52.514;13.458;2022-09-21T00:40:56;10.91;82.88
69770;SHT30;57282;52.514;13.458;2022-09-21T00:43:22;10.90;83.29
69770;SHT30;57282;52.514;13.458;2022-09-21T00:45:53;10.90;83.02
69770;SHT30;57282;52.514;13.458;2022-09-21T00:48:25;10.94;82.86
69770;SHT30;57282;52.514;13.458;2022-09-21T00:50:55;10.91;83.23
69770;SHT30;57282;52.514;13.458;2022-09-21T00:53:27;10.92;82.94
69770;SHT30;57282;52.514;13.458;2022-09-21T00:55:56;10.94;82.71
69770;SHT30;57282;52.514;13.458;2022-09-21T00:58:27;10.98;83.29
69770;SHT30;57282;52.514;13.458;2022-09-21T01:00:59;10.95;82.73
69770;SHT30;57282;52.514;13.458;2022-09-21T01:03:26;10.94;82.51
69770;SHT30;57282;52.514;13.458;2022-09-21T01:05:57;10.97;82.44
69770;SHT30;57282;52.514;13.458;2022-09-21T01:08:25;10.95;82.32
69770;SHT30;57282;52.514;13.458;2022-09-21T01:11:08;10.91;82.79
69770;SHT30;57282;52.514;13.458;2022-09-21T01:13:57;10.91;82.98
69770;SHT30;57282;52.514;13.458;2022-09-21T01:16:42;10.91;82.73
69770;SHT30;57282;52.514;13.458;2022-09-21T01:19:28;10.88;83.13
69770;SHT30;57282;52.514;13.458;2022-09-21T01:22:12;10.88;83.67
69770;SHT30;57282;52.514;13.458;2022-09-21T01:24:56;10.85;83.51
69770;SHT30;57282;52.514;13.458;2022-09-21T01:27:42;10.81;83.71
69770;SHT30;57282;52.514;13.458;2022-09-21T01:30:21;10.78;83.16
69770;SHT30;57282;52.514;13.458;2022-09-21T01:32:53;10.81;83.58
69770;SHT30;57282;52.514;13.458;2022-09-21T01:35:27;10.84;83.57
69770;SHT30;57282;52.514;13.458;2022-09-21T01:38:00;10.81;83.15
69770;SHT30;57282;52.514;13.458;2022-09-21T01:40:33;10.77;83.48
69770;SHT30;57282;52.514;13.458;2022-09-21T01:43:05;10.78;83.54
69770;SHT30;57282;52.514;13.458;2022-09-21T01:45:39;10.75;83.48
69770;SHT30;57282;52.514;13.458;2022-09-21T01:48:11;10.71;83.60
69770;SHT30;57282;52.514;13.458;2022-09-21T01:50:44;10.71;83.73
69770;SHT30;57282;52.514;13.458;2022-09-21T01:53:19;10.73;83.83
69770;SHT30;57282;52.514;13.458;2022-09-21T01:55:52;10.68;83.92
69770;SHT30;57282;52.514;13.458;2022-09-21T01:58:26;10.70;83.81
69770;SHT30;57282;52.514;13.458;2022-09-21T02:01:01;10.68;83.86
69770;SHT30;57282;52.514;13.458;2022-09-21T02:03:35;10.67;83.79
69770;SHT30;57282;52.514;13.458;2022-09-21T02:06:07;10.63;83.87
69770;SHT30;57282;52.514;13.458;2022-09-21T02:08:35;10.60;83.95
69770;SHT30;57282;52.514;13.458;2022-09-21T02:11:05;10.61;84.19
69770;SHT30;57282;52.514;13.458;2022-09-21T02:13:34;10.64;83.88
69770;SHT30;57282;52.514;13.458;2022-09-21T02:16:21;10.65;83.94
69770;SHT30;57282;52.514;13.458;2022-09-21T02:19:09;10.67;83.90
69770;SHT30;57282;52.514;13.458;2022-09-21T02:21:49;10.64;83.81
69770;SHT30;57282;52.514;13.458;2022-09-21T02:24:28;10.57;83.76
69770;SHT30;57282;52.514;13.458;2022-09-21T02:27:03;10.57;84.13
69770;SHT30;57282;52.514;13.458;2022-09-21T02:29:40;10.54;84.18
69770;SHT30;57282;52.514;13.458;2022-09-21T02:32:22;10.53;84.11
69770;SHT30;57282;52.514;13.458;2022-09-21T02:35:00;10.53;84.20
69770;SHT30;57282;52.514;13.458;2022-09-21T02:37:36;10.53;84.24
69770;SHT30;57282;52.514;13.458;2022-09-21T02:40:17;10.56;84.51
69770;SHT30;57282;52.514;13.458;2022-09-21T02:42:52;10.53;83.99
69770;SHT30;57282;52.514;13.458;2022-09-21T02:45:25;10.54;84.13
69770;SHT30;57282;52.514;13.458;2022-09-21T02:48:01;10.61;83.84
69770;SHT30;57282;52.514;13.458;2022-09-21T02:50:35;10.63;83.48
69770;SHT30;57282;52.514;13.458;2022-09-21T02:53:07;10.67;83.43
69770;SHT30;57282;52.514;13.458;2022-09-21T02:55:38;10.65;83.44
69770;SHT30;57282;52.514;13.458;2022-09-21T02:58:07;10.64;83.21
69770;SHT30;57282;52.514;13.458;2022-09-21T03:00:37;10.63;83.54
69770;SHT30;57282;52.514;13.458;2022-09-21T03:03:15;10.59;83.36
69770;SHT30;57282;52.514;13.458;2022-09-21T03:05:44;10.56;83.20
69770;SHT30;57282;52.514;13.458;2022-09-21T03:08:13;10.57;83.22
69770;SHT30;57282;52.514;13.458;2022-09-21T03:10:40;10.57;83.23
69770;SHT30;57282;52.514;13.458;2022-09-21T03:13:07;10.56;83.77
69770;SHT30;57282;52.514;13.458;2022-09-21T03:15:34;10.57;84.16
69770;SHT30;57282;52.514;13.458;2022-09-21T03:18:01;10.56;83.65
69770;SHT30;57282;52.514;13.458;2022-09-21T03:20:30;10.52;83.71
69770;SHT30;57282;52.514;13.458;2022-09-21T03:22:57;10.54;83.78
69770;SHT30;57282;52.514;13.458;2022-09-21T03:25:24;10.49;83.12
69770;SHT30;57282;52.514;13.458;2022-09-21T03:27:51;10.49;83.79
69770;SHT30;57282;52.514;13.458;2022-09-21T03:30:18;10.44;83.80
69770;SHT30;57282;52.514;13.458;2022-09-21T03:32:45;10.50;84.32
69770;SHT30;57282;52.514;13.458;2022-09-21T03:35:14;10.49;84.63
69770;SHT30;57282;52.514;13.458;2022-09-21T03:37:42;10.50;84.51
69770;SHT30;57282;52.514;13.458;2022-09-21T03:40:09;10.50;84.44
69770;SHT30;57282;52.514;13.458;2022-09-21T03:42:36;10.52;83.97
69770;SHT30;57282;52.514;13.458;2022-09-21T03:45:04;10.52;84.32
69770;SHT30;57282;52.514;13.458;2022-09-21T03:47:31;10.50;84.83
69770;SHT30;57282;52.514;13.458;2022-09-21T03:49:58;10.49;84.10
69770;SHT30;57282;52.514;13.458;2022-09-21T03:52:25;10.46;83.75
69770;SHT30;57282;52.514;13.458;2022-09-21T03:54:53;10.52;84.21
69770;SHT30;57282;52.514;13.458;2022-09-21T03:57:20;10.56;84.09
69770;SHT30;57282;52.514;13.458;2022-09-21T03:59:47;10.54;83.78
69770;SHT30;57282;52.514;13.458;2022-09-21T04:02:14;10.56;84.03
69770;SHT30;57282;52.514;13.458;2022-09-21T04:04:41;10.53;84.20
69770;SHT30;57282;52.514;13.458;2022-09-21T04:07:08;10.53;84.38
69770;SHT30;57282;52.514;13.458;2022-09-21T04:09:34;10.50;84.21
69770;SHT30;57282;52.514;13.458;2022-09-21T04:12:02;10.53;84.51
69770;SHT30;57282;52.514;13.458;2022-09-21T04:14:29;10.53;84.53
69770;SHT30;57282;52.514;13.458;2022-09-21T04:16:56;10.53;84.71
69770;SHT30;57282;52.514;13.458;2022-09-21T04:19:23;10.53;84.27
69770;SHT30;57282;52.514;13.458;2022-09-21T04:21:50;10.50;84.30
69770;SHT30;57282;52.514;13.458;2022-09-21T04:24:17;10.49;84.21
69770;SHT30;57282;52.514;13.458;2022-09-21T04:26:44;10.50;83.97
69770;SHT30;57282;52.514;13.458;2022-09-21T04:29:12;10.54;83.98
69770;SHT30;57282;52.514;13.458;2022-09-21T04:31:41;10.61;83.68
69770;SHT30;57282;52.514;13.458;2022-09-21T04:34:11;10.60;83.52
69770;SHT30;57282;52.514;13.458;2022-09-21T04:36:38;10.61;83.11
69770;SHT30;57282;52.514;13.458;2022-09-21T04:39:05;10.56;83.25
69770;SHT30;57282;52.514;13.458;2022-09-21T04:41:32;10.54;83.44
69770;SHT30;57282;52.514;13.458;2022-09-21T04:43:59;10.56;83.75
69770;SHT30;57282;52.514;13.458;2022-09-21T04:46:28;10.50;83.08
69770;SHT30;57282;52.514;13.458;2022-09-21T04:48:59;10.46;83.23
69770;SHT30;57282;52.514;13.458;2022-09-21T04:51:25;10.44;83.55
69770;SHT30;57282;52.514;13.458;2022-09-21T04:53:52;10.47;83.72
69770;SHT30;57282;52.514;13.458;2022-09-21T04:56:19;10.49;83.37
69770;SHT30;57282;52.514;13.458;2022-09-21T04:58:46;10.43;83.19
69770;SHT30;57282;52.514;13.458;2022-09-21T05:01:12;10.40;83.12
69770;SHT30;57282;52.514;13.458;2022-09-21T05:03:40;10.36;83.33
69770;SHT30;57282;52.514;13.458;2022-09-21T05:06:07;10.39;83.78
69770;SHT30;57282;52.514;13.458;2022-09-21T05:08:38;10.42;83.47
69770;SHT30;57282;52.514;13.458;2022-09-21T05:11:23;10.37;83.50
69770;SHT30;57282;52.514;13.458;2022-09-21T05:13:50;10.40;83.83
69770;SHT30;57282;52.514;13.458;2022-09-21T05:16:18;10.43;84.01
69770;SHT30;57282;52.514;13.458;2022-09-21T05:18:46;10.44;83.77
69770;SHT30;57282;52.514;13.458;2022-09-21T05:21:13;10.43;83.94
69770;SHT30;57282;52.514;13.458;2022-09-21T05:23:40;10.42;83.28
69770;SHT30;57282;52.514;13.458;2022-09-21T05:26:07;10.44;83.35
69770;SHT30;57282;52.514;13.458;2022-09-21T05:28:34;10.40;83.63
69770;SHT30;57282;52.514;13.458;2022-09-21T05:31:11;10.39;83.42
69770;SHT30;57282;52.514;13.458;2022-09-21T05:33:54;10.44;83.93
69770;SHT30;57282;52.514;13.458;2022-09-21T05:36:36;10.42;84.08
69770;SHT30;57282;52.514;13.458;2022-09-21T05:39:10;10.44;83.11
69770;SHT30;57282;52.514;13.458;2022-09-21T05:41:38;10.43;83.72
69770;SHT30;57282;52.514;13.458;2022-09-21T05:44:07;10.43;84.05
69770;SHT30;57282;52.514;13.458;2022-09-21T05:46:37;10.42;84.51
69770;SHT30;57282;52.514;13.458;2022-09-21T05:49:14;10.46;84.45
69770;SHT30;57282;52.514;13.458;2022-09-21T05:51:54;10.49;84.72
69770;SHT30;57282;52.514;13.458;2022-09-21T05:54:36;10.53;85.18
69770;SHT30;57282;52.514;13.458;2022-09-21T05:57:17;10.57;85.08
69770;SHT30;57282;52.514;13.458;2022-09-21T05:59:58;10.60;84.42
69770;SHT30;57282;52.514;13.458;2022-09-21T06:02:47;10.63;84.05
69770;SHT30;57282;52.514;13.458;2022-09-21T06:05:36;10.67;83.97
69770;SHT30;57282;52.514;13.458;2022-09-21T06:08:02;10.73;83.51
69770;SHT30;57282;52.514;13.458;2022-09-21T06:10:32;10.73;83.08
69770;SHT30;57282;52.514;13.458;2022-09-21T06:13:00;10.74;83.32
69770;SHT30;57282;52.514;13.458;2022-09-21T06:15:27;10.75;83.10
69770;SHT30;57282;52.514;13.458;2022-09-21T06:17:54;10.75;82.78
69770;SHT30;57282;52.514;13.458;2022-09-21T06:20:20;10.77;83.15
69770;SHT30;57282;52.514;13.458;2022-09-21T06:22:49;10.83;82.95
69770;SHT30;57282;52.514;13.458;2022-09-21T06:25:15;10.83;83.21
69770;SHT30;57282;52.514;13.458;2022-09-21T06:27:43;10.85;83.46
69770;SHT30;57282;52.514;13.458;2022-09-21T06:30:11;10.87;83.62
69770;SHT30;57282;52.514;13.458;2022-09-21T06:32:37;10.87;83.33
69770;SHT30;57282;52.514;13.458;2022-09-21T06:35:05;10.95;83.00
69770;SHT30;57282;52.514;13.458;2022-09-21T06:37:32;10.95;83.10
69770;SHT30;57282;52.514;13.458;2022-09-21T06:40:00;10.94;83.34
69770;SHT30;57282;52.514;13.458;2022-09-21T06:42:27;10.95;84.04
69770;SHT30;57282;52.514;13.458;2022-09-21T06:44:54;10.98;84.30
69770;SHT30;57282;52.514;13.458;2022-09-21T06:47:20;11.02;84.08
69770;SHT30;57282;52.514;13.458;2022-09-21T06:49:47;11.02;83.91
69770;SHT30;57282;52.514;13.458;2022-09-21T06:52:14;11.08;84.33
69770;SHT30;57282;52.514;13.458;2022-09-21T06:54:40;11.11;83.94
69770;SHT30;57282;52.514;13.458;2022-09-21T06:57:09;11.18;83.86
69770;SHT30;57282;52.514;13.458;2022-09-21T06:59:35;11.21;83.75
69770;SHT30;57282;52.514;13.458;2022-09-21T07:02:02;11.22;83.39
69770;SHT30;57282;52.514;13.458;2022-09-21T07:04:29;11.26;83.66
69770;SHT30;57282;52.514;13.458;2022-09-21T07:06:56;11.25;83.50
69770;SHT30;57282;52.514;13.458;2022-09-21T07:09:23;11.28;83.76
69770;SHT30;57282;52.514;13.458;2022-09-21T07:11:49;11.33;83.61
69770;SHT30;57282;52.514;13.458;2022-09-21T07:14:17;11.36;83.83
69770;SHT30;57282;52.514;13.458;2022-09-21T07:16:45;11.44;83.65
69770;SHT30;57282;52.514;13.458;2022-09-21T07:19:11;11.49;83.54
69770;SHT30;57282;52.514;13.458;2022-09-21T07:21:38;11.95;83.51
69770;SHT30;57282;52.514;13.458;2022-09-21T07:24:05;11.91;82.14
69770;SHT30;57282;52.514;13.458;2022-09-21T07:26:31;11.89;82.02
69770;SHT30;57282;52.514;13.458;2022-09-21T07:28:58;11.86;82.00
69770;SHT30;57282;52.514;13.458;2022-09-21T07:31:26;11.91;81.89
69770;SHT30;57282;52.514;13.458;2022-09-21T07:33:56;11.90;81.04
69770;SHT30;57282;52.514;13.458;2022-09-21T07:36:23;11.87;81.65
69770;SHT30;57282;52.514;13.458;2022-09-21T07:38:51;11.83;81.86
69770;SHT30;57282;52.514;13.458;2022-09-21T07:41:18;11.84;81.91
69770;SHT30;57282;52.514;13.458;2022-09-21T07:43:45;11.90;82.07
69770;SHT30;57282;52.514;13.458;2022-09-21T07:46:13;11.87;81.91
69770;SHT30;57282;52.514;13.458;2022-09-21T07:48:42;11.90;82.44
69770;SHT30;57282;52.514;13.458;2022-09-21T07:51:10;11.95;82.80
69770;SHT30;57282;52.514;13.458;2022-09-21T07:53:40;12.04;81.73
69770;SHT30;57282;52.514;13.458;2022-09-21T07:56:09;12.05;81.97
69770;SHT30;57282;52.514;13.458;2022-09-21T07:58:38;12.08;82.18
69770;SHT30;57282;52.514;13.458;2022-09-21T08:01:24;12.17;82.20
69770;SHT30;57282;52.514;13.458;2022-09-21T08:03:54;12.17;81.55
69770;SHT30;57282;52.514;13.458;2022-09-21T08:06:23;12.20;81.41
69770;SHT30;57282;52.514;13.458;2022-09-21T08:08:51;12.24;81.13
69770;SHT30;57282;52.514;13.458;2022-09-21T08:11:19;12.27;81.43
69770;SHT30;57282;52.514;13.458;2022-09-21T08:13:48;12.52;81.44
69770;SHT30;57282;52.514;13.458;2022-09-21T08:16:17;12.53;80.63
69770;SHT30;57282;52.514;13.458;2022-09-21T08:18:43;12.79;82.62
69770;SHT30;57282;52.514;13.458;2022-09-21T08:21:12;14.16;82.25
69770;SHT30;57282;52.514;13.458;2022-09-21T08:23:38;15.20;77.55
69770;SHT30;57282;52.514;13.458;2022-09-21T08:26:07;15.86;73.78
69770;SHT30;57282;52.514;13.458;2022-09-21T08:28:37;16.43;70.38
69770;SHT30;57282;52.514;13.458;2022-09-21T08:31:14;16.85;67.68
69770;SHT30;57282;52.514;13.458;2022-09-21T08:33:49;16.90;66.94
69770;SHT30;57282;52.514;13.458;2022-09-21T08:36:19;17.31;64.93
69770;SHT30;57282;52.514;13.458;2022-09-21T08:38:46;17.56;63.38
69770;SHT30;57282;52.514;13.458;2022-09-21T08:41:16;17.83;62.35
69770;SHT30;57282;52.514;13.458;2022-09-21T08:43:49;18.01;61.25
69770;SHT30;57282;52.514;13.458;2022-09-21T08:46:23;18.21;62.02
69770;SHT30;57282;52.514;13.458;2022-09-21T08:48:57;17.96;60.49
69770;SHT30;57282;52.514;13.458;2022-09-21T08:51:32;16.63;63.63
69770;SHT30;57282;52.514;13.458;2022-09-21T08:54:06;16.02;66.18
69770;SHT30;57282;52.514;13.458;2022-09-21T08:56:39;15.36;68.31
69770;SHT30;57282;52.514;13.458;2022-09-21T08:59:10;15.06;69.83
69770;SHT30;57282;52.514;13.458;2022-09-21T09:01:50;14.85;70.50
69770;SHT30;57282;52.514;13.458;2022-09-21T09:07:36;14.37;72.58
69770;SHT30;57282;52.514;13.458;2022-09-21T09:10:32;14.37;73.05
69770;SHT30;57282;52.514;13.458;2022-09-21T09:13:14;14.31;73.40
69770;SHT30;57282;52.514;13.458;2022-09-21T09:16:07;14.26;73.73
69770;SHT30;57282;52.514;13.458;2022-09-21T09:18:47;14.16;74.35
69770;SHT30;57282;52.514;13.458;2022-09-21T09:21:21;14.06;74.58
69770;SHT30;57282;52.514;13.458;2022-09-21T09:23:58;14.06;74.79
69770;SHT30;57282;52.514;13.458;2022-09-21T09:26:34;14.03;75.06
69770;SHT30;57282;52.514;13.458;2022-09-21T09:29:14;14.06;74.82
69770;SHT30;57282;52.514;13.458;2022-09-21T09:31:46;14.03;75.12
69770;SHT30;57282;52.514;13.458;2022-09-21T09:34:17;14.12;75.18
69770;SHT30;57282;52.514;13.458;2022-09-21T09:36:52;14.13;75.48
69770;SHT30;57282;52.514;13.458;2022-09-21T09:39:26;14.13;75.15
69770;SHT30;57282;52.514;13.458;2022-09-21T09:42:01;14.19;75.00
69770;SHT30;57282;52.514;13.458;2022-09-21T09:47:51;14.26;74.61
69770;SHT30;57282;52.514;13.458;2022-09-21T09:50:29;14.23;74.47
69770;SHT30;57282;52.514;13.458;2022-09-21T09:53:03;14.24;74.61
69770;SHT30;57282;52.514;13.458;2022-09-21T09:55:37;14.20;74.74
69770;SHT30;57282;52.514;13.458;2022-09-21T09:58:15;14.27;74.99
69770;SHT30;57282;52.514;13.458;2022-09-21T10:00:44;14.36;74.54
69770;SHT30;57282;52.514;13.458;2022-09-21T10:03:16;14.34;74.29
69770;SHT30;57282;52.514;13.458;2022-09-21T10:05:44;14.38;74.29
69770;SHT30;57282;52.514;13.458;2022-09-21T10:08:39;14.45;74.41
69770;SHT30;57282;52.514;13.458;2022-09-21T10:11:11;14.50;74.29
69770;SHT30;57282;52.514;13.458;2022-09-21T10:13:41;14.60;74.93
69770;SHT30;57282;52.514;13.458;2022-09-21T10:16:11;14.63;73.66
69770;SHT30;57282;52.514;13.458;2022-09-21T10:18:44;14.67;73.46
69770;SHT30;57282;52.514;13.458;2022-09-21T10:21:17;14.70;73.46
69770;SHT30;57282;52.514;13.458;2022-09-21T10:23:48;14.70;72.55
69770;SHT30;57282;52.514;13.458;2022-09-21T10:26:18;14.67;72.51
69770;SHT30;57282;52.514;13.458;2022-09-21T10:28:56;14.71;72.89
69770;SHT30;57282;52.514;13.458;2022-09-21T10:31:25;14.77;72.65
69770;SHT30;57282;52.514;13.458;2022-09-21T10:34:05;14.84;70.67
69770;SHT30;57282;52.514;13.458;2022-09-21T10:36:37;14.91;69.71
69770;SHT30;57282;52.514;13.458;2022-09-21T10:39:17;14.93;69.26
69770;SHT30;57282;52.514;13.458;2022-09-21T10:41:52;14.96;69.44
69770;SHT30;57282;52.514;13.458;2022-09-21T10:44:25;14.95;67.89
69770;SHT30;57282;52.514;13.458;2022-09-21T10:47:00;14.98;68.51
69770;SHT30;57282;52.514;13.458;2022-09-21T10:49:43;14.96;68.01
69770;SHT30;57282;52.514;13.458;2022-09-21T10:52:12;15.01;67.38
69770;SHT30;57282;52.514;13.458;2022-09-21T10:54:40;15.05;66.70
69770;SHT30;57282;52.514;13.458;2022-09-21T10:57:13;15.10;66.83
69770;SHT30;57282;52.514;13.458;2022-09-21T10:59:43;15.25;66.49
69770;SHT30;57282;52.514;13.458;2022-09-21T11:02:25;15.23;66.09
69770;SHT30;57282;52.514;13.458;2022-09-21T11:05:00;15.22;65.92
69770;SHT30;57282;52.514;13.458;2022-09-21T11:07:37;15.19;66.88
69770;SHT30;57282;52.514;13.458;2022-09-21T11:10:17;15.19;67.03
69770;SHT30;57282;52.514;13.458;2022-09-21T11:12:57;15.19;65.40
69770;SHT30;57282;52.514;13.458;2022-09-21T11:15:40;15.18;64.39
69770;SHT30;57282;52.514;13.458;2022-09-21T11:18:19;15.22;63.80
69770;SHT30;57282;52.514;13.458;2022-09-21T11:20:54;15.28;63.08
69770;SHT30;57282;52.514;13.458;2022-09-21T11:23:37;15.32;62.18
69770;SHT30;57282;52.514;13.458;2022-09-21T11:26:18;15.37;61.54
69770;SHT30;57282;52.514;13.458;2022-09-21T11:29:08;15.47;59.86
69770;SHT30;57282;52.514;13.458;2022-09-21T11:31:46;15.57;58.68
69770;SHT30;57282;52.514;13.458;2022-09-21T11:34:34;15.68;58.99
69770;SHT30;57282;52.514;13.458;2022-09-21T11:37:20;15.73;59.40
69770;SHT30;57282;52.514;13.458;2022-09-21T11:40:13;15.80;58.76
69770;SHT30;57282;52.514;13.458;2022-09-21T11:43:00;15.74;60.36
69770;SHT30;57282;52.514;13.458;2022-09-21T11:45:48;15.74;63.70
69770;SHT30;57282;52.514;13.458;2022-09-21T11:48:29;15.74;64.68
69770;SHT30;57282;52.514;13.458;2022-09-21T11:51:14;15.74;65.02
69770;SHT30;57282;52.514;13.458;2022-09-21T11:54:08;15.67;64.54
69770;SHT30;57282;52.514;13.458;2022-09-21T11:56:53;15.76;65.34
69770;SHT30;57282;52.514;13.458;2022-09-21T11:59:36;15.83;62.80
69770;SHT30;57282;52.514;13.458;2022-09-21T12:02:27;15.84;62.78
69770;SHT30;57282;52.514;13.458;2022-09-21T12:05:05;15.86;63.00
69770;SHT30;57282;52.514;13.458;2022-09-21T12:08:02;15.88;62.14
69770;SHT30;57282;52.514;13.458;2022-09-21T12:10:47;15.87;62.31
69770;SHT30;57282;52.514;13.458;2022-09-21T12:13:27;16.00;62.83
69770;SHT30;57282;52.514;13.458;2022-09-21T12:16:07;15.95;61.52
69770;SHT30;57282;52.514;13.458;2022-09-21T12:18:45;16.00;61.65
69770;SHT30;57282;52.514;13.458;2022-09-21T12:21:23;15.98;61.79
69770;SHT30;57282;52.514;13.458;2022-09-21T12:23:55;16.00;61.47
69770;SHT30;57282;52.514;13.458;2022-09-21T12:26:28;16.00;61.72
69770;SHT30;57282;52.514;13.458;2022-09-21T12:29:01;16.09;60.00
69770;SHT30;57282;52.514;13.458;2022-09-21T12:31:37;16.09;59.40
69770;SHT30;57282;52.514;13.458;2022-09-21T12:34:14;16.09;58.91
69770;SHT30;57282;52.514;13.458;2022-09-21T12:36:50;16.16;58.45
69770;SHT30;57282;52.514;13.458;2022-09-21T12:39:26;16.21;58.83
69770;SHT30;57282;52.514;13.458;2022-09-21T12:41:58;16.21;58.06
69770;SHT30;57282;52.514;13.458;2022-09-21T12:44:33;16.29;57.65
69770;SHT30;57282;52.514;13.458;2022-09-21T12:47:18;16.38;58.73
69770;SHT30;57282;52.514;13.458;2022-09-21T12:49:54;16.33;58.56
69770;SHT30;57282;52.514;13.458;2022-09-21T12:52:25;16.32;59.43
69770;SHT30;57282;52.514;13.458;2022-09-21T12:54:58;16.28;60.16
69770;SHT30;57282;52.514;13.458;2022-09-21T12:57:43;16.18;61.06
69770;SHT30;57282;52.514;13.458;2022-09-21T13:00:18;16.24;60.98
69770;SHT30;57282;52.514;13.458;2022-09-21T13:02:52;16.25;61.66
69770;SHT30;57282;52.514;13.458;2022-09-21T13:05:34;16.16;61.36
69770;SHT30;57282;52.514;13.458;2022-09-21T13:08:10;16.15;61.44
69770;SHT30;57282;52.514;13.458;2022-09-21T13:10:45;16.08;61.24
69770;SHT30;57282;52.514;13.458;2022-09-21T13:13:21;16.05;61.22
69770;SHT30;57282;52.514;13.458;2022-09-21T13:15:52;16.15;60.99
69770;SHT30;57282;52.514;13.458;2022-09-21T13:18:23;16.15;60.19
69770;SHT30;57282;52.514;13.458;2022-09-21T13:20:52;16.14;60.74
69770;SHT30;57282;52.514;13.458;2022-09-21T13:23:23;16.24;59.55
69770;SHT30;57282;52.514;13.458;2022-09-21T13:26:00;16.29;58.90
69770;SHT30;57282;52.514;13.458;2022-09-21T13:31:55;16.42;58.20
69770;SHT30;57282;52.514;13.458;2022-09-21T13:34:28;16.39;57.33
69770;SHT30;57282;52.514;13.458;2022-09-21T13:37:25;16.35;57.69
69770;SHT30;57282;52.514;13.458;2022-09-21T13:46:52;16.51;58.42
69770;SHT30;57282;52.514;13.458;2022-09-21T13:49:42;16.48;59.51
69770;SHT30;57282;52.514;13.458;2022-09-21T13:52:24;16.48;60.19
69770;SHT30;57282;52.514;13.458;2022-09-21T13:54:57;16.46;60.07
69770;SHT30;57282;52.514;13.458;2022-09-21T13:57:32;16.53;60.37
69770;SHT30;57282;52.514;13.458;2022-09-21T14:00:32;16.52;59.70
69770;SHT30;57282;52.514;13.458;2022-09-21T14:03:03;16.49;59.63
69770;SHT30;57282;52.514;13.458;2022-09-21T14:05:44;16.52;59.42
69770;SHT30;57282;52.514;13.458;2022-09-21T14:08:25;16.57;59.97
69770;SHT30;57282;52.514;13.458;2022-09-21T14:10:57;16.53;59.11
69770;SHT30;57282;52.514;13.458;2022-09-21T14:13:32;16.57;58.00
69770;SHT30;57282;52.514;13.458;2022-09-21T14:20:01;16.59;55.52
69770;SHT30;57282;52.514;13.458;2022-09-21T14:22:34;16.57;55.28
69770;SHT30;57282;52.514;13.458;2022-09-21T14:25:25;17.51;67.25
69770;SHT30;57282;52.514;13.458;2022-09-21T14:27:58;18.09;62.76
69770;SHT30;57282;52.514;13.458;2022-09-21T14:30:33;18.41;62.37
69770;SHT30;57282;52.514;13.458;2022-09-21T14:33:11;18.30;54.76
69770;SHT30;57282;52.514;13.458;2022-09-21T14:35:46;18.65;59.61
69770;SHT30;57282;52.514;13.458;2022-09-21T14:38:17;18.57;55.24
69770;SHT30;57282;52.514;13.458;2022-09-21T14:40:49;18.43;54.12
69770;SHT30;57282;52.514;13.458;2022-09-21T14:43:20;18.81;57.42
69770;SHT30;57282;52.514;13.458;2022-09-21T14:49:17;19.20;55.59
69770;SHT30;57282;52.514;13.458;2022-09-21T14:52:02;18.99;51.77
69770;SHT30;57282;52.514;13.458;2022-09-21T14:54:41;18.47;51.19
69770;SHT30;57282;52.514;13.458;2022-09-21T14:57:30;18.03;51.62
69770;SHT30;57282;52.514;13.458;2022-09-21T15:00:19;17.80;52.73
69770;SHT30;57282;52.514;13.458;2022-09-21T15:03:00;17.58;52.53
69770;SHT30;57282;52.514;13.458;2022-09-21T15:05:45;17.36;53.28
69770;SHT30;57282;52.514;13.458;2022-09-21T15:08:32;17.30;52.60
69770;SHT30;57282;52.514;13.458;2022-09-21T15:11:31;17.20;52.42
69770;SHT30;57282;52.514;13.458;2022-09-21T15:14:14;17.15;52.38
69770;SHT30;57282;52.514;13.458;2022-09-21T15:16:48;17.07;52.47
69770;SHT30;57282;52.514;13.458;2022-09-21T15:19:24;17.31;56.93
69770;SHT30;57282;52.514;13.458;2022-09-21T15:21:53;17.10;53.52
69770;SHT30;57282;52.514;13.458;2022-09-21T15:24:24;17.07;53.47
69770;SHT30;57282;52.514;13.458;2022-09-21T15:27:04;16.90;53.25
69770;SHT30;57282;52.514;13.458;2022-09-21T15:29:35;17.56;61.21
69770;SHT30;57282;52.514;13.458;2022-09-21T15:32:04;18.09;59.65
69770;SHT30;57282;52.514;13.458;2022-09-21T15:34:33;18.57;58.22
69770;SHT30;57282;52.514;13.458;2022-09-21T15:37:07;18.94;56.89
69770;SHT30;57282;52.514;13.458;2022-09-21T15:39:43;19.19;55.10
69770;SHT30;57282;52.514;13.458;2022-09-21T15:42:15;18.62;48.38
69770;SHT30;57282;52.514;13.458;2022-09-21T15:44:45;18.27;50.25
69770;SHT30;57282;52.514;13.458;2022-09-21T15:47:22;17.89;50.34
69770;SHT30;57282;52.514;13.458;2022-09-21T15:49:54;17.70;52.96
69770;SHT30;57282;52.514;13.458;2022-09-21T15:52:29;17.51;50.25
69770;SHT30;57282;52.514;13.458;2022-09-21T15:55:08;17.25;51.82
69770;SHT30;57282;52.514;13.458;2022-09-21T15:57:41;17.41;55.99
69770;SHT30;57282;52.514;13.458;2022-09-21T16:00:18;17.38;56.35
69770;SHT30;57282;52.514;13.458;2022-09-21T16:03:05;17.38;53.10
69770;SHT30;57282;52.514;13.458;2022-09-21T16:05:46;17.30;53.59
69770;SHT30;57282;52.514;13.458;2022-09-21T16:08:25;17.15;53.20
69770;SHT30;57282;52.514;13.458;2022-09-21T16:11:13;17.10;53.52
69770;SHT30;57282;52.514;13.458;2022-09-21T16:13:43;16.93;53.75
69770;SHT30;57282;52.514;13.458;2022-09-21T16:16:29;17.01;53.20
69770;SHT30;57282;52.514;13.458;2022-09-21T16:18:56;16.91;54.06